Time;durP1;ratioP1;P1;durP2;ratioP2;P2;SDS_P1;SDS_P2;PMS_P1;PMS_P2;Temp;Humidity;BMP_temperature;BMP_pressure;BME280_temperature;BME280_humidity;BME280_pressure;Samples;Min_cycle;Max_cycle;Signal;HPM_P1;HPM_P2
2022/04/17 00:01:32;;;;;;;9.00;7.15;;;;;;;7.57;42.20;102795.41;5022168;28;20080;-93
2022/04/17 00:03:58;;;;;;;11.00;7.28;;;;;;;7.52;42.43;102793.66;5023302;28;20052;-93
2022/04/17 00:06:23;;;;;;;10.02;7.90;;;;;;;7.53;43.01;102801.63;5028525;28;20045;-93
2022/04/17 00:08:49;;;;;;;10.23;7.43;;;;;;;7.42;42.79;102782.25;5027667;28;20022;-93
2022/04/17 00:11:14;;;;;;;9.05;6.82;;;;;;;7.41;42.41;102794.63;5026041;28;20034;-94
2022/04/17 00:13:40;;;;;;;12.00;6.80;;;;;;;7.35;42.63;102781.41;5023564;28;20034;-93
2022/04/17 00:16:05;;;;;;;9.02;6.47;;;;;;;7.35;42.34;102789.34;5009694;28;20022;-93
2022/04/17 00:18:30;;;;;;;9.88;7.15;;;;;;;7.36;42.40;102788.47;5025846;28;20029;-93
2022/04/17 00:20:56;;;;;;;10.63;7.00;;;;;;;7.32;42.48;102785.88;5019131;28;20073;-93
2022/04/17 00:23:21;;;;;;;9.00;6.30;;;;;;;7.26;42.34;102781.47;5021646;28;20025;-94
2022/04/17 00:25:47;;;;;;;9.63;6.63;;;;;;;7.24;42.21;102792.06;5025529;28;20542;-94
2022/04/17 00:28:12;;;;;;;9.25;6.75;;;;;;;7.20;42.68;102794.75;5028110;28;20038;-95
2022/04/17 00:30:38;;;;;;;8.38;6.85;;;;;;;7.15;43.21;102792.13;5022259;28;20065;-94
2022/04/17 00:33:03;;;;;;;7.43;6.30;;;;;;;7.10;42.88;102790.38;5026052;28;20262;-95
2022/04/17 00:35:29;;;;;;;8.40;6.40;;;;;;;7.08;42.89;102781.59;5024512;28;20879;-93
2022/04/17 00:37:54;;;;;;;9.98;6.68;;;;;;;7.00;42.85;102792.22;5024851;28;20138;-93
2022/04/17 00:40:19;;;;;;;10.45;6.30;;;;;;;7.02;42.95;102790.41;5009392;28;20037;-94
2022/04/17 00:42:45;;;;;;;8.52;6.10;;;;;;;6.98;43.98;102796.63;5025025;28;20064;-94
2022/04/17 00:45:10;;;;;;;8.68;6.28;;;;;;;6.91;43.16;102793.13;5025254;28;20388;-94
2022/04/17 00:47:35;;;;;;;9.68;5.70;;;;;;;6.83;43.23;102780.81;5028359;28;20057;-94
2022/04/17 00:50:02;;;;;;;6.93;5.95;;;;;;;6.83;43.51;102786.13;5024355;28;20084;-94
2022/04/17 00:52:28;;;;;;;9.00;6.32;;;;;;;6.79;43.91;102787.88;5031393;28;20021;-95
2022/04/17 00:54:54;;;;;;;7.85;5.80;;;;;;;6.77;42.98;102794.06;5024608;28;20480;-94
2022/04/17 00:57:20;;;;;;;7.82;6.10;;;;;;;6.68;43.41;102779.97;5026575;28;20093;-92
2022/04/17 00:59:47;;;;;;;7.97;6.18;;;;;;;6.71;43.44;102785.28;5032777;28;20121;-94
2022/04/17 01:02:16;;;;;;;7.28;6.13;;;;;;;6.63;43.46;102780.88;5031789;28;20043;-95
2022/04/17 01:04:42;;;;;;;6.43;5.68;;;;;;;6.57;43.61;102780.94;5027527;28;20045;-94
2022/04/17 01:07:08;;;;;;;7.10;5.70;;;;;;;6.55;43.57;102778.25;5034562;28;20030;-94
2022/04/17 01:09:35;;;;;;;6.45;5.57;;;;;;;6.53;44.08;102779.19;5035842;28;20494;-94
2022/04/17 01:12:00;;;;;;;7.75;6.13;;;;;;;6.49;44.28;102779.19;5026859;28;20041;-94
2022/04/17 01:14:29;;;;;;;8.52;6.22;;;;;;;6.40;44.16;102780.97;5030679;28;20021;-95
2022/04/17 01:16:55;;;;;;;7.60;5.65;;;;;;;6.39;44.70;102789.78;5034210;28;20510;-95
2022/04/17 01:19:21;;;;;;;6.72;5.63;;;;;;;6.34;44.79;102781.84;5031172;28;20037;-94
2022/04/17 01:21:47;;;;;;;6.72;5.55;;;;;;;6.30;44.26;102785.38;5025385;28;20356;-94
2022/04/17 01:26:57;;;;;;;;;;;;;;;6.27;43.80;102788.06;5022873;28;20403;-94
2022/04/17 01:29:40;;;;;;;7.47;5.28;;;;;;;6.17;44.06;102781.00;5026546;28;19917;-93
2022/04/17 01:32:10;;;;;;;7.50;5.25;;;;;;;6.18;44.74;102788.94;5006346;28;20044;-93
2022/04/17 01:34:37;;;;;;;8.00;5.28;;;;;;;6.16;44.84;102784.53;5021657;28;20119;-94
2022/04/17 01:37:03;;;;;;;8.70;5.45;;;;;;;6.09;45.11;102777.50;5029443;28;20036;-94
2022/04/17 01:39:30;;;;;;;9.18;5.72;;;;;;;6.04;45.27;102774.84;5030084;28;20033;-94
2022/04/17 01:41:57;;;;;;;7.20;5.18;;;;;;;6.04;45.62;102776.63;5029781;28;20483;-94
2022/04/17 01:44:24;;;;;;;7.38;5.50;;;;;;;5.98;45.31;102775.75;5025269;28;20081;-93
2022/04/17 01:46:49;;;;;;;7.60;5.30;;;;;;;5.95;45.42;102761.66;5030058;28;20037;-94
2022/04/17 01:49:15;;;;;;;8.20;5.15;;;;;;;5.88;45.42;102766.03;5029788;28;20029;-93
2022/04/17 01:51:42;;;;;;;7.75;5.65;;;;;;;5.85;46.71;102768.69;5028011;28;20033;-94
2022/04/17 01:54:15;;;;;;;8.52;5.65;;;;;;;5.83;46.39;102777.50;5021672;28;20033;-94
2022/04/17 01:56:42;;;;;;;5.85;5.13;;;;;;;5.81;46.54;102773.94;5019248;28;20038;-94
2022/04/17 01:59:08;;;;;;;10.63;5.63;;;;;;;5.73;46.20;102772.22;5013242;28;20504;-94
2022/04/17 02:01:34;;;;;;;9.23;5.20;;;;;;;5.69;46.62;102777.50;5030808;28;20033;-94
2022/04/17 02:04:01;;;;;;;5.95;4.82;;;;;;;5.70;46.67;102781.91;5019906;28;20025;-94
2022/04/17 02:06:27;;;;;;;6.53;5.13;;;;;;;5.59;46.28;102765.16;5026080;28;20026;-94
2022/04/17 02:08:52;;;;;;;6.75;4.88;;;;;;;5.63;46.33;102769.56;5025508;28;20517;-94
2022/04/17 02:11:19;;;;;;;6.88;5.13;;;;;;;5.60;46.40;102769.53;5031372;28;20380;-94
2022/04/17 02:13:45;;;;;;;8.50;5.38;;;;;;;5.57;46.31;102770.44;5025617;28;20049;-94
2022/04/17 02:16:11;;;;;;;8.30;5.18;;;;;;;5.57;45.99;102764.28;5020034;28;20060;-94
2022/04/17 02:18:36;;;;;;;6.28;4.95;;;;;;;5.54;46.43;102761.63;5018874;28;20032;-95
2022/04/17 02:21:02;;;;;;;6.63;4.68;;;;;;;5.47;46.17;102761.59;5030642;28;20034;-94
2022/04/17 02:23:27;;;;;;;7.50;4.30;;;;;;;5.49;46.33;102762.50;5025261;28;20033;-94
2022/04/17 02:25:53;;;;;;;6.57;4.70;;;;;;;5.39;46.57;102747.53;5027962;28;20049;-94
2022/04/17 02:28:18;;;;;;;6.63;5.05;;;;;;;5.40;47.04;102759.88;5026947;28;20474;-93
2022/04/17 02:30:43;;;;;;;6.00;4.88;;;;;;;5.40;47.10;102764.28;5030722;28;20021;-94
2022/04/17 02:33:09;;;;;;;8.27;4.82;;;;;;;5.37;47.68;102761.63;5030578;28;20487;-93
2022/04/17 02:35:34;;;;;;;6.20;4.68;;;;;;;5.28;47.45;102751.03;5028522;28;20039;-92
2022/04/17 02:37:59;;;;;;;8.48;4.85;;;;;;;5.28;48.73;102762.47;5026345;28;20052;-94
2022/04/17 02:40:25;;;;;;;6.28;4.50;;;;;;;5.26;48.04;102769.50;5024310;28;20056;-91
2022/04/17 02:42:53;;;;;;;9.25;5.15;;;;;;;5.21;48.15;102769.50;5024161;28;20044;-93
2022/04/17 02:45:19;;;;;;;6.72;4.72;;;;;;;5.15;48.72;102766.84;5025631;28;20033;-94
2022/04/17 02:47:45;;;;;;;6.47;4.97;;;;;;;5.12;48.85;102758.94;5030392;28;20071;-93
2022/04/17 02:50:12;;;;;;;6.40;4.45;;;;;;;5.05;48.93;102748.34;5027368;28;20172;-94
2022/04/17 02:52:39;;;;;;;6.10;4.47;;;;;;;5.07;48.98;102770.34;5026976;28;20022;-94
2022/04/17 02:55:05;;;;;;;6.93;4.50;;;;;;;5.02;49.19;102765.06;5020773;28;20029;-94
2022/04/17 02:57:31;;;;;;;6.53;4.57;;;;;;;4.95;49.20;102747.44;5023960;28;20108;-95
2022/04/17 02:59:57;;;;;;;9.48;4.82;;;;;;;4.97;48.73;102757.16;5024956;28;20029;-94
2022/04/17 03:07:52;;;;;;;7.35;4.40;;;;;;;4.87;49.49;102746.53;5014032;28;20049;-94
2022/04/17 03:10:17;;;;;;;5.82;4.82;;;;;;;4.80;49.78;102742.09;5033606;28;20026;-94
2022/04/17 03:12:43;;;;;;;8.35;4.82;;;;;;;4.80;49.23;102750.03;5025958;28;20090;-93
2022/04/17 03:15:09;;;;;;;6.72;4.78;;;;;;;4.81;48.74;102755.34;5020012;28;20052;-93
2022/04/17 03:17:34;;;;;;;6.55;4.70;;;;;;;4.81;49.04;102750.06;5030537;28;20099;-94
2022/04/17 03:20:00;;;;;;;8.60;4.70;;;;;;;4.81;49.33;102755.34;5024388;28;20068;-93
2022/04/17 03:22:26;;;;;;;7.75;5.00;;;;;;;4.78;49.47;102746.50;5027361;28;20272;-93
2022/04/17 03:24:52;;;;;;;8.02;4.90;;;;;;;4.71;50.35;102741.19;5018107;28;20036;-93
2022/04/17 03:27:17;;;;;;;6.15;4.97;;;;;;;4.72;50.33;102743.00;5028809;28;20040;-93
2022/04/17 03:29:42;;;;;;;5.20;4.60;;;;;;;4.66;50.87;102742.06;5022682;28;20104;-94
2022/04/17 03:32:08;;;;;;;13.07;5.25;;;;;;;4.63;50.61;102747.31;5015364;28;20041;-93
2022/04/17 03:34:33;;;;;;;6.97;5.07;;;;;;;4.61;51.61;102751.72;5028334;28;20479;-94
2022/04/17 03:36:59;;;;;;;6.28;4.95;;;;;;;4.55;51.04;102733.22;5025580;28;20025;-93
2022/04/17 03:39:24;;;;;;;6.55;5.07;;;;;;;4.46;51.26;102734.94;5018225;28;20045;-93
2022/04/17 03:41:51;;;;;;;9.95;5.15;;;;;;;4.47;51.07;102731.47;5025672;28;20030;-94
2022/04/17 03:44:16;;;;;;;6.28;4.82;;;;;;;4.44;51.87;102731.44;5030867;28;20105;-94
2022/04/17 03:46:41;;;;;;;9.20;5.25;;;;;;;4.41;51.83;102731.41;5021856;28;20111;-93
2022/04/17 03:49:07;;;;;;;7.70;5.13;;;;;;;4.32;52.37;102720.81;5017380;28;20480;-94
2022/04/17 03:51:32;;;;;;;6.05;5.05;;;;;;;4.32;51.69;102722.59;5012214;28;20490;-95
2022/04/17 03:53:58;;;;;;;6.63;4.78;;;;;;;4.28;52.10;102726.94;5029518;28;20041;-94
2022/04/17 03:56:23;;;;;;;6.88;5.07;;;;;;;4.23;52.40;102726.06;5025674;28;20080;-94
2022/04/17 03:58:48;;;;;;;6.97;4.88;;;;;;;4.19;52.48;102722.53;5011624;28;20076;-94
2022/04/17 04:01:14;;;;;;;6.90;4.80;;;;;;;4.18;53.16;102725.13;5030113;28;20109;-93
2022/04/17 04:03:39;;;;;;;7.15;4.85;;;;;;;4.15;53.12;102717.22;5015797;28;20022;-94
2022/04/17 04:06:05;;;;;;;6.80;4.53;;;;;;;4.08;52.66;102721.56;5020364;28;20021;-94
2022/04/17 04:08:30;;;;;;;6.20;4.57;;;;;;;4.10;53.11;102725.09;5020390;28;20092;-94
2022/04/17 04:10:55;;;;;;;8.98;5.50;;;;;;;4.07;53.77;102716.28;5018614;28;20819;-94
2022/04/17 04:13:21;;;;;;;7.07;4.95;;;;;;;4.05;53.35;102716.25;5016352;28;20029;-94
2022/04/17 04:15:46;;;;;;;6.97;5.10;;;;;;;4.05;53.12;102710.13;5014664;28;20022;-94
2022/04/17 04:18:11;;;;;;;6.40;4.38;;;;;;;4.00;53.49;102708.34;5019808;28;20025;-93
2022/04/17 04:20:36;;;;;;;7.50;5.15;;;;;;;3.99;53.58;102714.47;4993669;28;20034;-94
2022/04/17 04:23:02;;;;;;;8.57;4.93;;;;;;;3.98;53.34;102718.00;5014307;28;20029;-93
2022/04/17 04:25:27;;;;;;;7.63;4.95;;;;;;;3.93;53.63;102709.19;5013620;28;20850;-94
2022/04/17 04:30:36;;;;;;;9.43;5.75;;;;;;;3.92;54.23;102699.50;5015453;28;20085;-94
2022/04/17 04:33:01;;;;;;;6.93;5.00;;;;;;;3.92;54.33;102707.41;5016830;28;20037;-94
2022/04/17 04:35:29;;;;;;;6.00;4.85;;;;;;;3.91;54.38;102696.88;5016987;28;20044;-94
2022/04/17 04:37:54;;;;;;;8.93;4.78;;;;;;;3.84;54.43;102690.66;5003878;28;20137;-93
2022/04/17 04:40:19;;;;;;;6.72;5.07;;;;;;;3.85;54.29;102695.09;5020417;28;20129;-94
2022/04/17 04:42:44;;;;;;;7.45;4.90;;;;;;;3.83;54.80;102688.91;5026007;28;20364;-94
2022/04/17 04:47:55;;;;;;;6.95;4.78;;;;;;;3.80;54.16;102691.50;5023703;28;20076;-93
2022/04/17 04:50:20;;;;;;;7.80;5.38;;;;;;;3.80;54.41;102686.25;5015936;28;20559;-92
2022/04/17 04:52:45;;;;;;;6.45;4.55;;;;;;;3.83;54.28;102688.91;5025164;28;20037;-94
2022/04/17 04:55:10;;;;;;;8.38;5.05;;;;;;;3.84;54.65;102690.66;5024927;28;20038;-93
2022/04/17 04:57:36;;;;;;;7.90;4.97;;;;;;;3.87;54.63;102690.69;5029474;28;20045;-92
2022/04/17 05:00:06;;;;;;;8.05;4.82;;;;;;;3.87;54.61;102690.69;5022048;28;20036;-94
2022/04/17 05:02:31;;;;;;;6.65;4.63;;;;;;;3.88;54.48;102684.53;5019835;28;20084;-93
2022/04/17 05:04:56;;;;;;;5.85;4.38;;;;;;;3.91;54.97;102692.47;5020172;28;20030;-93
2022/04/17 05:07:22;;;;;;;7.45;4.40;;;;;;;3.89;54.53;102685.47;5021850;28;20060;-93
2022/04/17 05:09:47;;;;;;;9.43;5.00;;;;;;;3.92;54.65;102691.59;5024649;28;20057;-94
2022/04/17 05:12:12;;;;;;;5.90;4.50;;;;;;;3.93;54.87;102684.56;5007420;28;20033;-93
2022/04/17 05:14:41;;;;;;;7.68;5.10;;;;;;;3.90;54.60;102676.66;5030384;28;20419;-93
2022/04/17 05:17:06;;;;;;;10.57;5.45;;;;;;;3.93;54.57;102684.56;5030791;28;20440;-94
2022/04/17 05:19:32;;;;;;;7.13;4.88;;;;;;;4.00;54.92;102689.88;5031585;28;20116;-94
2022/04/17 05:21:57;;;;;;;7.25;5.28;;;;;;;4.02;54.69;102689.03;5027355;28;20071;-94
2022/04/17 05:24:23;;;;;;;7.63;4.97;;;;;;;4.02;54.73;102684.66;5029696;28;20060;-94
2022/04/17 05:26:49;;;;;;;5.22;4.70;;;;;;;4.05;54.68;102684.66;5020227;28;20052;-95
2022/04/17 05:29:14;;;;;;;7.50;4.50;;;;;;;4.10;54.69;102704.03;5027726;28;20119;-95
2022/04/17 05:31:39;;;;;;;7.03;4.80;;;;;;;4.13;54.59;102698.75;5024005;28;20072;-94
2022/04/17 05:34:05;;;;;;;5.35;4.85;;;;;;;4.18;54.63;102701.41;5014261;28;20017;-95
2022/04/17 05:36:30;;;;;;;7.43;4.85;;;;;;;4.22;54.27;102695.28;5032035;28;20368;-95
2022/04/17 05:38:56;;;;;;;9.55;4.80;;;;;;;4.28;54.61;102697.97;5030173;28;20354;-95
2022/04/17 05:41:26;;;;;;;6.95;5.03;;;;;;;4.35;54.63;102699.75;5032433;28;20038;-93
2022/04/17 05:43:51;;;;;;;6.28;4.90;;;;;;;4.44;54.79;102704.19;5032187;28;20029;-95
2022/04/17 05:46:17;;;;;;;6.25;4.93;;;;;;;4.60;53.87;102695.47;5032341;28;20030;-95
2022/04/17 05:48:43;;;;;;;6.03;4.85;;;;;;;4.87;53.44;102702.56;5028432;28;20052;-94
2022/04/17 05:51:08;;;;;;;6.00;5.40;;;;;;;5.10;53.45;102692.06;5030186;28;20042;-95
2022/04/17 05:53:33;;;;;;;7.70;5.03;;;;;;;5.40;52.50;102691.19;5030271;28;20041;-95
2022/04/17 05:55:59;;;;;;;8.88;4.97;;;;;;;5.63;51.86;102699.09;5027071;28;20033;-95
2022/04/17 05:58:25;;;;;;;7.13;5.30;;;;;;;5.85;50.89;102697.34;5025685;28;20030;-96
2022/04/17 06:00:50;;;;;;;7.03;4.97;;;;;;;6.03;50.77;102699.09;5020005;28;20026;-95
2022/04/17 06:03:15;;;;;;;5.43;4.65;;;;;;;6.17;50.66;102693.75;5022798;28;20032;-94
2022/04/17 06:05:41;;;;;;;9.45;5.13;;;;;;;6.42;49.91;102689.25;5028291;28;20025;-95
2022/04/17 06:08:06;;;;;;;6.95;5.10;;;;;;;6.61;49.42;102700.66;5021288;28;20116;-95
2022/04/17 06:10:32;;;;;;;5.10;4.60;;;;;;;6.69;49.15;102685.63;5011048;28;20034;-96
2022/04/17 06:12:57;;;;;;;5.30;4.45;;;;;;;6.85;48.60;102692.56;5027350;28;20331;-96
2022/04/17 06:15:22;;;;;;;6.28;4.97;;;;;;;6.96;48.55;102693.38;5003012;28;20025;-95
2022/04/17 06:17:47;;;;;;;7.28;4.50;;;;;;;7.12;48.22;102693.28;5009096;28;20030;-95
2022/04/17 06:20:13;;;;;;;6.03;4.95;;;;;;;7.28;47.71;102692.28;5028788;28;20048;-95
2022/04/17 06:22:39;;;;;;;8.13;4.82;;;;;;;7.47;47.65;102704.47;5016691;28;20056;-95
2022/04/17 06:25:10;;;;;;;5.43;4.63;;;;;;;7.66;47.24;102699.03;5026794;28;20026;-95
2022/04/17 06:27:43;;;;;;;6.03;4.90;;;;;;;7.84;47.05;102696.19;5028501;28;20033;-95
2022/04/17 06:30:10;;;;;;;5.43;4.93;;;;;;;8.03;46.44;102690.72;5026587;28;20029;-95
2022/04/17 06:32:35;;;;;;;7.10;4.57;;;;;;;8.19;45.51;102693.19;5023610;28;20590;-95
2022/04/17 06:35:01;;;;;;;5.53;4.13;;;;;;;8.27;45.15;102694.84;5029492;28;20075;-95
2022/04/17 06:37:26;;;;;;;6.60;4.80;;;;;;;8.36;45.11;102698.31;5029470;28;20035;-96
2022/04/17 06:39:51;;;;;;;5.93;4.50;;;;;;;8.44;44.63;102688.50;5020190;28;20026;-95
2022/04/17 06:42:16;;;;;;;5.45;4.85;;;;;;;8.51;44.18;102686.63;5029377;28;20375;-95
2022/04/17 06:44:42;;;;;;;5.55;4.63;;;;;;;8.56;44.15;102687.44;5022016;28;20068;-95
2022/04/17 06:47:07;;;;;;;5.72;4.30;;;;;;;8.74;44.18;102689.00;5021805;28;20059;-94
2022/04/17 06:49:32;;;;;;;5.22;4.55;;;;;;;8.92;43.42;102683.41;5008812;28;20026;-94
2022/04/17 06:51:57;;;;;;;5.97;4.82;;;;;;;9.08;43.07;102685.84;5029172;28;20525;-94
2022/04/17 06:54:23;;;;;;;5.22;4.72;;;;;;;9.12;43.28;102666.31;5023940;28;20026;-95
2022/04/17 06:56:48;;;;;;;7.60;4.70;;;;;;;9.31;43.20;102673.06;5028867;28;20126;-95
2022/04/17 06:59:13;;;;;;;5.28;4.50;;;;;;;9.56;42.32;102680.63;5020385;28;20494;-95
2022/04/17 07:01:38;;;;;;;5.93;4.40;;;;;;;9.66;41.82;102680.44;5024430;28;20026;-95
2022/04/17 07:04:04;;;;;;;6.72;4.65;;;;;;;9.76;41.47;102683.81;5026997;28;20071;-96
2022/04/17 07:06:29;;;;;;;5.28;4.10;;;;;;;9.93;41.73;102679.06;5020537;28;20033;-95
2022/04/17 07:08:54;;;;;;;5.20;4.60;;;;;;;10.14;40.86;102672.44;5026537;28;20639;-96
2022/04/17 07:11:22;;;;;;;7.13;4.20;;;;;;;10.37;40.99;102665.81;5027921;28;20095;-96
2022/04/17 07:13:48;;;;;;;6.28;4.38;;;;;;;10.57;39.86;102663.59;5027135;28;20022;-96
2022/04/17 07:16:13;;;;;;;5.78;4.57;;;;;;;10.91;39.76;102665.47;5022276;28;20075;-96
2022/04/17 07:18:38;;;;;;;5.57;4.57;;;;;;;11.33;39.42;102660.94;5024637;28;20056;-96
2022/04/17 07:21:04;;;;;;;8.00;4.47;;;;;;;11.75;38.57;102667.88;5026132;28;20049;-96
2022/04/17 07:23:29;;;;;;;5.53;4.70;;;;;;;12.10;37.90;102670.47;5030442;28;20025;-95
2022/04/17 07:25:56;;;;;;;6.20;4.43;;;;;;;12.45;37.02;102673.91;5000517;28;20048;-96
2022/04/17 07:28:22;;;;;;;5.85;4.53;;;;;;;12.72;36.27;102664.19;5014995;28;20068;-95
2022/04/17 07:30:47;;;;;;;5.75;4.88;;;;;;;13.00;35.59;102665.97;5025138;28;20458;-96
2022/04/17 07:33:12;;;;;;;4.88;4.40;;;;;;;13.36;34.97;102654.13;5027160;28;20116;-96
2022/04/17 07:35:37;;;;;;;5.32;4.35;;;;;;;13.71;34.24;102662.75;5034991;28;20030;-96
2022/04/17 07:38:04;;;;;;;7.13;4.53;;;;;;;13.85;33.43;102655.09;5032012;28;20017;-96
2022/04/17 07:40:31;;;;;;;5.78;4.53;;;;;;;13.89;33.28;102656.75;5028798;28;20034;-96
2022/04/17 07:42:59;;;;;;;5.65;4.40;;;;;;;14.05;33.23;102656.19;5027172;28;20033;-94
2022/04/17 07:45:25;;;;;;;5.20;4.70;;;;;;;14.14;32.94;102647.81;5009639;28;20941;-96
2022/04/17 07:47:51;;;;;;;4.78;4.28;;;;;;;14.30;33.20;102634.72;5026670;28;20048;-95
2022/04/17 07:50:23;;;;;;;4.65;4.07;;;;;;;14.62;32.97;102638.84;5028879;28;20033;-94
2022/04/17 07:52:48;;;;;;;6.00;4.40;;;;;;;14.99;32.05;102632.03;5027601;28;20056;-96
2022/04/17 07:55:15;;;;;;;5.05;4.30;;;;;;;15.30;31.32;102632.50;5016205;28;20030;-91
2022/04/17 08:00:28;;;;;;;6.13;4.53;;;;;;;16.01;31.07;102632.09;5029462;28;20029;-96
2022/04/17 08:03:06;;;;;;;4.88;3.97;;;;;;;16.49;30.02;102633.47;5026338;28;20056;-95
2022/04/17 08:05:34;;;;;;;5.38;4.20;;;;;;;17.03;29.16;102629.09;5031748;28;20062;-96
2022/04/17 08:07:59;;;;;;;5.40;4.30;;;;;;;17.45;28.41;102626.06;5032121;28;20032;-93
2022/04/17 08:10:24;;;;;;;6.13;4.45;;;;;;;17.76;27.42;102625.34;5010853;28;20033;-96
2022/04/17 08:12:51;;;;;;;5.13;3.90;;;;;;;18.12;27.80;102635.97;5031671;28;20099;-96
2022/04/17 08:15:16;;;;;;;4.38;3.97;;;;;;;18.32;27.12;102617.84;5024668;28;20468;-96
2022/04/17 08:17:41;;;;;;;4.65;4.18;;;;;;;18.58;26.55;102625.34;5032703;28;20029;-96
2022/04/17 08:20:07;;;;;;;4.15;3.65;;;;;;;18.98;25.78;102639.31;5046002;28;20034;-96
2022/04/17 08:22:33;;;;;;;6.13;3.65;;;;;;;19.25;25.65;102635.94;5042698;28;20013;-96
2022/04/17 08:24:58;;;;;;;4.43;3.78;;;;;;;19.48;25.24;102631.84;5034742;28;20037;-96
2022/04/17 08:27:23;;;;;;;4.55;3.58;;;;;;;19.69;24.58;102629.72;5041691;28;20029;-96
2022/04/17 08:29:48;;;;;;;4.00;3.60;;;;;;;20.17;24.35;102625.81;5044707;28;20064;-96
2022/04/17 08:32:13;;;;;;;3.78;3.45;;;;;;;20.32;23.34;102624.84;5047963;28;20037;-96
2022/04/17 08:34:39;;;;;;;5.45;3.45;;;;;;;20.77;23.33;102630.94;5051258;28;20045;-96
2022/04/17 08:37:04;;;;;;;4.43;3.15;;;;;;;21.13;22.69;102615.94;5020382;28;20463;-96
2022/04/17 08:39:29;;;;;;;3.97;3.20;;;;;;;21.50;22.29;102624.31;5034528;28;20085;-96
2022/04/17 08:41:58;;;;;;;3.40;3.00;;;;;;;21.45;22.08;102585.84;5230006;23;20093;-96
2022/04/17 08:44:26;;;;;;;3.45;3.10;;;;;;;21.37;21.74;102573.69;5017477;28;20037;-96
2022/04/17 08:46:52;;;;;;;3.53;2.90;;;;;;;21.72;21.85;102581.19;5096109;23;20021;-96
2022/04/17 08:49:22;;;;;;;3.60;3.08;;;;;;;22.44;21.37;102604.97;5057420;28;20030;-96
2022/04/17 08:51:49;;;;;;;3.25;2.88;;;;;;;22.66;20.72;102566.25;5183502;22;20033;-96
2022/04/17 08:56:56;;;;;;;3.20;2.90;;;;;;;23.21;19.88;102578.41;5035207;28;20056;-96
2022/04/17 08:59:24;;;;;;;4.43;2.60;;;;;;;23.26;19.54;102585.22;5101594;22;20068;-95
2022/04/17 09:01:50;;;;;;;3.53;3.00;;;;;;;23.24;19.23;102597.16;5024981;28;20038;-96
2022/04/17 09:04:17;;;;;;;4.05;3.20;;;;;;;22.76;19.36;102573.59;5029269;28;20017;-96
2022/04/17 09:06:49;;;;;;;4.15;3.20;;;;;;;22.99;19.68;102566.47;5028539;28;20030;-96
2022/04/17 09:09:19;;;;;;;4.13;3.00;;;;;;;23.31;19.68;102579.41;5019615;28;20027;-96
2022/04/17 09:11:45;;;;;;;4.85;2.78;;;;;;;23.47;18.78;102563.66;5016875;28;21040;-96
2022/04/17 09:14:10;;;;;;;3.85;3.25;;;;;;;23.98;19.23;102605.88;5021158;28;20030;-96
2022/04/17 09:16:49;;;;;;;4.18;3.33;;;;;;;23.94;18.48;102591.66;5009604;28;20044;-96
2022/04/17 09:19:18;;;;;;;3.67;3.38;;;;;;;23.72;19.32;102569.91;5021772;28;20116;-95
2022/04/17 09:21:44;;;;;;;3.83;3.40;;;;;;;24.21;18.83;102574.97;5016154;28;20121;-96
2022/04/17 09:24:16;;;;;;;3.30;3.00;;;;;;;24.39;18.93;102553.59;5007043;28;20068;-96
2022/04/17 09:27:01;;;;;;;4.85;3.30;;;;;;;25.55;19.52;102570.09;5022485;28;20459;-95
2022/04/17 09:29:29;;;;;;;4.43;2.70;;;;;;;25.83;16.72;102588.50;5018596;28;20505;-95
2022/04/17 09:32:00;;;;;;;3.72;2.85;;;;;;;25.47;17.45;102587.09;4996370;28;20057;-96
2022/04/17 09:34:26;;;;;;;3.30;2.80;;;;;;;25.63;16.94;102586.63;5016567;28;20034;-96
2022/04/17 09:36:56;;;;;;;4.32;3.00;;;;;;;25.77;17.33;102575.41;5023843;28;20036;-96
2022/04/17 09:39:22;;;;;;;4.00;2.55;;;;;;;25.97;16.88;102567.31;5024171;28;20033;-96
2022/04/17 09:41:55;;;;;;;2.95;2.30;;;;;;;26.12;17.19;102576.84;5012132;28;20037;-96
2022/04/17 09:44:33;;;;;;;3.30;2.60;;;;;;;26.42;17.28;102570.50;5004350;28;20021;-96
2022/04/17 09:46:58;;;;;;;2.58;2.30;;;;;;;26.93;16.24;102555.78;5006078;28;20026;-96
2022/04/17 09:49:24;;;;;;;2.88;2.65;;;;;;;27.89;15.73;102567.59;5016191;28;20065;-96
2022/04/17 09:52:04;;;;;;;2.58;2.38;;;;;;;28.68;16.03;102561.56;5022133;28;20034;-96
2022/04/17 09:54:30;;;;;;;3.17;2.63;;;;;;;28.76;14.63;102542.47;5021712;28;20030;-95
2022/04/17 09:56:56;;;;;;;2.55;2.20;;;;;;;28.67;14.93;102551.59;5017984;28;20087;-96
2022/04/17 09:59:23;;;;;;;3.83;2.53;;;;;;;28.75;15.05;102539.84;5019286;28;20038;-96
2022/04/17 10:01:53;;;;;;;2.70;2.50;;;;;;;29.09;14.80;102545.50;5020124;28;20038;-96
2022/04/17 10:04:20;;;;;;;2.90;2.20;;;;;;;29.38;14.19;102533.38;5016292;28;20033;-96
2022/04/17 10:06:48;;;;;;;3.75;2.40;;;;;;;29.58;14.10;102539.56;5014209;28;20179;-94
2022/04/17 10:09:14;;;;;;;2.50;2.30;;;;;;;30.07;13.68;102534.31;5015838;28;20487;-93
2022/04/17 10:11:40;;;;;;;2.28;2.08;;;;;;;30.69;13.27;102523.88;5006966;28;20036;-96
2022/04/17 10:14:06;;;;;;;4.63;2.38;;;;;;;30.64;12.97;102513.38;4992912;28;20486;-93
2022/04/17 10:16:33;;;;;;;2.45;2.10;;;;;;;30.72;13.45;102515.25;5006478;28;20416;-94
2022/04/17 10:19:04;;;;;;;3.17;2.30;;;;;;;30.96;13.44;102501.56;5011590;28;20041;-94
2022/04/17 10:21:34;;;;;;;2.75;2.00;;;;;;;31.14;12.54;102509.59;5012376;28;20151;-88
2022/04/17 10:24:02;;;;;;;3.88;2.00;;;;;;;30.42;12.65;102509.38;5006056;28;20054;-95
2022/04/17 10:26:31;;;;;;;2.33;1.92;;;;;;;30.69;12.32;102504.63;4996473;28;20029;-95
2022/04/17 10:28:59;;;;;;;2.33;2.10;;;;;;;30.91;12.58;102497.59;5008559;28;20044;-95
2022/04/17 10:31:30;;;;;;;3.42;1.98;;;;;;;31.36;12.43;102494.31;5007722;28;20040;-95
2022/04/17 10:34:17;;;;;;;3.47;2.47;;;;;;;31.61;12.76;102488.75;5010789;28;20026;-96
2022/04/17 10:36:59;;;;;;;2.53;2.00;;;;;;;31.79;12.71;102486.59;5013154;28;20199;-91
2022/04/17 10:39:37;;;;;;;3.58;2.28;;;;;;;31.52;12.62;102481.53;5010222;28;20030;-96
2022/04/17 10:42:07;;;;;;;2.55;1.95;;;;;;;31.50;12.68;102470.72;4996855;28;20037;-95
2022/04/17 10:44:37;;;;;;;2.95;2.20;;;;;;;32.69;12.13;102456.66;5020223;28;20042;-96
2022/04/17 10:47:04;;;;;;;2.22;1.98;;;;;;;33.19;11.35;102465.31;5017276;28;20040;-96
2022/04/17 10:49:30;;;;;;;2.55;2.30;;;;;;;33.70;11.22;102457.19;5006131;28;20042;-96
2022/04/17 10:51:57;;;;;;;2.38;2.00;;;;;;;33.72;11.20;102449.56;5013139;28;20315;-96
2022/04/17 10:54:23;;;;;;;2.10;1.90;;;;;;;33.38;10.15;102452.88;5024414;28;20030;-94
2022/04/17 10:56:54;;;;;;;2.13;1.80;;;;;;;32.66;11.04;102451.50;4974725;28;20134;-94
2022/04/17 10:59:27;;;;;;;2.70;1.90;;;;;;;32.39;10.83;102441.88;5000607;28;20104;-92
2022/04/17 11:02:03;;;;;;;2.47;2.05;;;;;;;32.63;11.07;102446.34;4995087;28;20026;-90
2022/04/17 11:04:39;;;;;;;3.15;2.05;;;;;;;32.60;10.76;102441.22;4992531;28;20062;-96
2022/04/17 11:07:05;;;;;;;3.53;1.90;;;;;;;32.91;11.12;102432.00;5007088;28;20025;-93
2022/04/17 11:09:33;;;;;;;2.03;1.83;;;;;;;33.01;10.27;102435.34;5008297;28;20029;-94
2022/04/17 11:12:11;;;;;;;2.28;1.60;;;;;;;32.81;10.87;102428.63;4992337;28;20030;-90
2022/04/17 11:14:38;;;;;;;2.17;1.85;;;;;;;32.70;10.67;102419.78;5002433;28;20040;-89
2022/04/17 11:17:08;;;;;;;3.85;1.77;;;;;;;32.60;9.54;102424.66;4998060;28;20026;-89
2022/04/17 11:19:40;;;;;;;1.98;1.52;;;;;;;32.71;9.85;102431.66;5000568;28;20048;-91
2022/04/17 11:22:08;;;;;;;1.80;1.45;;;;;;;33.01;9.70;102413.28;5002112;28;20089;-91
2022/04/17 11:24:55;;;;;;;2.17;1.50;;;;;;;33.82;9.34;102408.72;4997939;28;20083;-91
2022/04/17 11:27:41;;;;;;;3.50;1.70;;;;;;;34.23;10.33;102404.47;5010976;28;20026;-96
2022/04/17 11:30:31;;;;;;;2.00;1.63;;;;;;;34.83;10.00;102408.69;5011765;28;20366;-95
2022/04/17 11:32:56;;;;;;;3.17;1.67;;;;;;;34.31;8.91;102404.34;4990368;28;20213;-93
2022/04/17 11:35:25;;;;;;;2.08;1.65;;;;;;;33.76;9.83;102394.81;5005231;28;20088;-91
2022/04/17 11:37:57;;;;;;;3.22;1.75;;;;;;;33.44;9.90;102402.44;4988675;28;20121;-92
2022/04/17 11:40:25;;;;;;;3.25;2.38;;;;;;;33.10;9.58;102401.09;5000272;28;20044;-94
2022/04/17 11:42:52;;;;;;;3.22;1.83;;;;;;;32.86;9.91;102398.59;5010964;28;20057;-93
2022/04/17 11:45:23;;;;;;;3.55;2.20;;;;;;;33.01;10.17;102391.22;5011698;28;20044;-94
2022/04/17 11:47:49;;;;;;;2.75;1.88;;;;;;;33.11;10.02;102386.28;5011543;28;20041;-96